Monday, February 19, 2018, 9:59 AM GMT
Back to Local

CXHF, High Falls , Que.

Location: , , Canada Lat: 45.833
Local Time: 9:59 AM GMT ( 9:59 GMT) Lon: -75.65
Time Zone: GMT Elev: 623 ft

Show me the last for .
Show Coded

Time T Td Feel RH Dir Speed Gust Alt SLP Vis Weather Sky Remarks
2018-02-19 09:00 25 22 - 89 - - - - - 0 None
2018-02-19 08:00 26 23 - 86 - - - - - 0 None
2018-02-19 07:00 26 22 - 85 - - - - - 0 None
2018-02-19 06:00 27 22 - 82 - - - - - 0 None
2018-02-19 04:00 24 18 - 77 - - - - - 0 None
2018-02-19 03:00 23 18 - 80 - - - - - 0 None
2018-02-19 02:00 23 17 - 78 - - - - - 0 None
2018-02-19 01:00 22 17 - 79 - - - - - 0 None
2018-02-19 00:00 24 17 - 73 - - - - - 0 None
2018-02-18 23:00 26 17 - 66 - - - - - 0 None
2018-02-18 22:00 30 16 - 53 - - - - - 0 None
2018-02-18 21:00 32 15 - 49 - - - - - 0 None
2018-02-18 20:00 31 15 - 51 - - - - - 0 None
2018-02-18 19:00 32 16 - 52 - - - - - 0 None
2018-02-18 18:00 32 20 - 61 - - - - - 0 None
2018-02-18 17:00 31 21 - 65 - - - - - 0 1-hr Precip Total: 0.04"
2018-02-18 16:00 30 23 - 74 - - - - - 0 None
2018-02-18 15:00 26 22 - 86 - - - - - 0 None
2018-02-18 14:00 20 19 - 95 - - - - - 0 None
2018-02-18 13:00 15 13 - 93 - - - - - 0 None
2018-02-18 11:00 16 14 - 92 - - - - - 0 None
2018-02-18 10:00 18 16 - 92 - - - - - 0 None

Support USWX by starting your Amazon purchase here.